sensor_id;sensor_type;location;lat;lon;timestamp;P1;durP1;ratioP1;P2;durP2;ratioP2
49366;SDS011;35245;52.026;8.540;2023-03-13T00:01:31;20.25;;;5.55;;
49366;SDS011;35245;52.026;8.540;2023-03-13T00:03:59;26.42;;;5.63;;
49366;SDS011;35245;52.026;8.540;2023-03-13T00:06:28;20.17;;;5.45;;
49366;SDS011;35245;52.026;8.540;2023-03-13T00:08:58;18.63;;;4.88;;
49366;SDS011;35245;52.026;8.540;2023-03-13T00:11:26;24.38;;;5.47;;
49366;SDS011;35245;52.026;8.540;2023-03-13T00:13:53;19.95;;;5.07;;
49366;SDS011;35245;52.026;8.540;2023-03-13T00:16:20;23.70;;;4.75;;
49366;SDS011;35245;52.026;8.540;2023-03-13T00:18:48;19.42;;;5.00;;
49366;SDS011;35245;52.026;8.540;2023-03-13T00:21:16;24.23;;;4.85;;
49366;SDS011;35245;52.026;8.540;2023-03-13T00:23:44;19.38;;;5.13;;
49366;SDS011;35245;52.026;8.540;2023-03-13T00:26:13;26.05;;;5.25;;
49366;SDS011;35245;52.026;8.540;2023-03-13T00:28:41;25.20;;;5.03;;
49366;SDS011;35245;52.026;8.540;2023-03-13T00:31:09;24.05;;;5.93;;
49366;SDS011;35245;52.026;8.540;2023-03-13T00:33:37;25.60;;;5.75;;
49366;SDS011;35245;52.026;8.540;2023-03-13T00:36:07;23.48;;;4.72;;
49366;SDS011;35245;52.026;8.540;2023-03-13T00:38:35;23.23;;;5.30;;
49366;SDS011;35245;52.026;8.540;2023-03-13T00:41:03;29.75;;;5.95;;
49366;SDS011;35245;52.026;8.540;2023-03-13T00:43:32;23.30;;;5.28;;
49366;SDS011;35245;52.026;8.540;2023-03-13T00:46:00;25.05;;;5.50;;
49366;SDS011;35245;52.026;8.540;2023-03-13T00:48:27;20.65;;;5.00;;
49366;SDS011;35245;52.026;8.540;2023-03-13T00:50:54;19.05;;;5.78;;
49366;SDS011;35245;52.026;8.540;2023-03-13T00:53:21;26.60;;;4.85;;
49366;SDS011;35245;52.026;8.540;2023-03-13T00:55:51;26.77;;;5.65;;
49366;SDS011;35245;52.026;8.540;2023-03-13T00:58:19;21.17;;;4.40;;
49366;SDS011;35245;52.026;8.540;2023-03-13T01:00:48;19.23;;;4.90;;
49366;SDS011;35245;52.026;8.540;2023-03-13T01:03:17;21.85;;;4.55;;
49366;SDS011;35245;52.026;8.540;2023-03-13T01:05:44;21.05;;;5.53;;
49366;SDS011;35245;52.026;8.540;2023-03-13T01:08:11;25.98;;;4.22;;
49366;SDS011;35245;52.026;8.540;2023-03-13T01:10:38;25.85;;;5.70;;
49366;SDS011;35245;52.026;8.540;2023-03-13T01:13:05;17.50;;;4.57;;
49366;SDS011;35245;52.026;8.540;2023-03-13T01:15:33;20.27;;;4.50;;
49366;SDS011;35245;52.026;8.540;2023-03-13T01:18:02;24.67;;;4.65;;
49366;SDS011;35245;52.026;8.540;2023-03-13T01:20:29;19.60;;;4.70;;
49366;SDS011;35245;52.026;8.540;2023-03-13T01:22:56;26.20;;;5.03;;
49366;SDS011;35245;52.026;8.540;2023-03-13T01:25:23;25.58;;;5.18;;
49366;SDS011;35245;52.026;8.540;2023-03-13T01:27:50;21.52;;;5.32;;
49366;SDS011;35245;52.026;8.540;2023-03-13T01:30:17;21.35;;;4.22;;
49366;SDS011;35245;52.026;8.540;2023-03-13T01:32:44;18.35;;;5.10;;
49366;SDS011;35245;52.026;8.540;2023-03-13T01:35:13;20.73;;;4.80;;
49366;SDS011;35245;52.026;8.540;2023-03-13T01:37:39;15.10;;;3.83;;
49366;SDS011;35245;52.026;8.540;2023-03-13T01:40:07;24.27;;;5.50;;
49366;SDS011;35245;52.026;8.540;2023-03-13T01:42:48;23.80;;;5.10;;
49366;SDS011;35245;52.026;8.540;2023-03-13T01:48:23;23.50;;;4.40;;
49366;SDS011;35245;52.026;8.540;2023-03-13T01:50:55;18.45;;;4.28;;
49366;SDS011;35245;52.026;8.540;2023-03-13T01:53:22;18.17;;;4.20;;
49366;SDS011;35245;52.026;8.540;2023-03-13T01:55:50;21.48;;;4.72;;
49366;SDS011;35245;52.026;8.540;2023-03-13T01:58:18;26.00;;;4.65;;
49366;SDS011;35245;52.026;8.540;2023-03-13T02:00:45;20.85;;;4.40;;
49366;SDS011;35245;52.026;8.540;2023-03-13T02:03:14;22.63;;;5.10;;
49366;SDS011;35245;52.026;8.540;2023-03-13T02:05:43;19.92;;;4.07;;
49366;SDS011;35245;52.026;8.540;2023-03-13T02:08:14;21.10;;;4.78;;
49366;SDS011;35245;52.026;8.540;2023-03-13T02:10:45;24.92;;;4.78;;
49366;SDS011;35245;52.026;8.540;2023-03-13T02:13:16;19.63;;;4.50;;
49366;SDS011;35245;52.026;8.540;2023-03-13T02:15:44;19.73;;;4.20;;
49366;SDS011;35245;52.026;8.540;2023-03-13T02:18:11;22.05;;;4.75;;
49366;SDS011;35245;52.026;8.540;2023-03-13T02:20:38;18.63;;;4.38;;
49366;SDS011;35245;52.026;8.540;2023-03-13T02:23:06;24.00;;;4.15;;
49366;SDS011;35245;52.026;8.540;2023-03-13T02:25:43;22.88;;;4.78;;
49366;SDS011;35245;52.026;8.540;2023-03-13T02:28:12;22.25;;;4.80;;
49366;SDS011;35245;52.026;8.540;2023-03-13T02:30:41;19.48;;;4.43;;
49366;SDS011;35245;52.026;8.540;2023-03-13T02:33:09;19.05;;;5.05;;
49366;SDS011;35245;52.026;8.540;2023-03-13T02:35:36;19.83;;;4.13;;
49366;SDS011;35245;52.026;8.540;2023-03-13T02:38:04;21.05;;;4.35;;
49366;SDS011;35245;52.026;8.540;2023-03-13T02:40:34;14.10;;;3.65;;
49366;SDS011;35245;52.026;8.540;2023-03-13T02:43:04;21.08;;;4.30;;
49366;SDS011;35245;52.026;8.540;2023-03-13T02:45:33;18.67;;;4.78;;
49366;SDS011;35245;52.026;8.540;2023-03-13T02:48:00;23.23;;;4.45;;
49366;SDS011;35245;52.026;8.540;2023-03-13T02:50:27;19.80;;;4.57;;
49366;SDS011;35245;52.026;8.540;2023-03-13T02:52:54;20.70;;;4.47;;
49366;SDS011;35245;52.026;8.540;2023-03-13T02:55:24;21.90;;;4.68;;
49366;SDS011;35245;52.026;8.540;2023-03-13T02:57:53;22.77;;;4.80;;
49366;SDS011;35245;52.026;8.540;2023-03-13T03:00:22;20.10;;;4.65;;
49366;SDS011;35245;52.026;8.540;2023-03-13T03:02:50;22.88;;;3.97;;
49366;SDS011;35245;52.026;8.540;2023-03-13T03:05:18;23.67;;;4.97;;
49366;SDS011;35245;52.026;8.540;2023-03-13T03:07:46;21.08;;;4.57;;
49366;SDS011;35245;52.026;8.540;2023-03-13T03:10:13;21.30;;;4.90;;
49366;SDS011;35245;52.026;8.540;2023-03-13T03:12:40;25.75;;;4.20;;
49366;SDS011;35245;52.026;8.540;2023-03-13T03:15:07;23.10;;;4.68;;
49366;SDS011;35245;52.026;8.540;2023-03-13T03:17:36;23.95;;;4.78;;
49366;SDS011;35245;52.026;8.540;2023-03-13T03:20:04;20.70;;;5.00;;
49366;SDS011;35245;52.026;8.540;2023-03-13T03:22:36;26.88;;;5.30;;
49366;SDS011;35245;52.026;8.540;2023-03-13T03:25:05;22.55;;;5.00;;
49366;SDS011;35245;52.026;8.540;2023-03-13T03:27:33;27.25;;;5.15;;
49366;SDS011;35245;52.026;8.540;2023-03-13T03:30:00;24.88;;;5.25;;
49366;SDS011;35245;52.026;8.540;2023-03-13T03:32:27;23.73;;;4.93;;
49366;SDS011;35245;52.026;8.540;2023-03-13T03:34:56;19.15;;;4.65;;
49366;SDS011;35245;52.026;8.540;2023-03-13T03:37:23;21.75;;;4.95;;
49366;SDS011;35245;52.026;8.540;2023-03-13T03:39:50;27.15;;;5.53;;
49366;SDS011;35245;52.026;8.540;2023-03-13T03:42:17;26.60;;;5.28;;
49366;SDS011;35245;52.026;8.540;2023-03-13T03:44:44;20.92;;;5.00;;
49366;SDS011;35245;52.026;8.540;2023-03-13T03:47:11;20.25;;;5.20;;
49366;SDS011;35245;52.026;8.540;2023-03-13T03:49:38;25.00;;;5.32;;
49366;SDS011;35245;52.026;8.540;2023-03-13T03:52:06;21.77;;;4.93;;
49366;SDS011;35245;52.026;8.540;2023-03-13T03:54:33;22.90;;;4.43;;
49366;SDS011;35245;52.026;8.540;2023-03-13T03:57:00;27.52;;;5.00;;
49366;SDS011;35245;52.026;8.540;2023-03-13T03:59:27;27.00;;;4.90;;
49366;SDS011;35245;52.026;8.540;2023-03-13T04:01:54;22.83;;;4.68;;
49366;SDS011;35245;52.026;8.540;2023-03-13T04:04:21;22.15;;;5.22;;
49366;SDS011;35245;52.026;8.540;2023-03-13T04:06:48;21.83;;;4.20;;
49366;SDS011;35245;52.026;8.540;2023-03-13T04:09:16;22.98;;;4.80;;
49366;SDS011;35245;52.026;8.540;2023-03-13T04:11:43;22.30;;;4.72;;
49366;SDS011;35245;52.026;8.540;2023-03-13T04:14:10;18.33;;;4.72;;
49366;SDS011;35245;52.026;8.540;2023-03-13T04:16:37;22.52;;;4.70;;
49366;SDS011;35245;52.026;8.540;2023-03-13T04:19:04;24.30;;;4.78;;
49366;SDS011;35245;52.026;8.540;2023-03-13T04:21:31;28.42;;;4.53;;
49366;SDS011;35245;52.026;8.540;2023-03-13T04:23:58;19.02;;;4.20;;
49366;SDS011;35245;52.026;8.540;2023-03-13T04:26:26;20.42;;;3.83;;
49366;SDS011;35245;52.026;8.540;2023-03-13T04:28:53;18.45;;;5.32;;
49366;SDS011;35245;52.026;8.540;2023-03-13T04:31:20;17.02;;;3.53;;
49366;SDS011;35245;52.026;8.540;2023-03-13T04:33:47;15.32;;;3.95;;
49366;SDS011;35245;52.026;8.540;2023-03-13T04:36:14;20.20;;;3.72;;
49366;SDS011;35245;52.026;8.540;2023-03-13T04:38:41;22.30;;;4.07;;
49366;SDS011;35245;52.026;8.540;2023-03-13T04:41:08;19.52;;;4.35;;
49366;SDS011;35245;52.026;8.540;2023-03-13T04:43:36;20.33;;;5.72;;
49366;SDS011;35245;52.026;8.540;2023-03-13T04:46:03;15.05;;;4.43;;
49366;SDS011;35245;52.026;8.540;2023-03-13T04:48:30;24.10;;;8.02;;
49366;SDS011;35245;52.026;8.540;2023-03-13T04:50:57;9.48;;;2.50;;
49366;SDS011;35245;52.026;8.540;2023-03-13T04:53:24;13.10;;;2.92;;
49366;SDS011;35245;52.026;8.540;2023-03-13T04:55:51;18.20;;;7.10;;
49366;SDS011;35245;52.026;8.540;2023-03-13T04:58:18;11.70;;;3.25;;
49366;SDS011;35245;52.026;8.540;2023-03-13T05:00:46;14.77;;;5.18;;
49366;SDS011;35245;52.026;8.540;2023-03-13T05:03:13;10.93;;;2.38;;
49366;SDS011;35245;52.026;8.540;2023-03-13T05:05:40;8.75;;;2.90;;
49366;SDS011;35245;52.026;8.540;2023-03-13T05:08:07;10.40;;;3.00;;
49366;SDS011;35245;52.026;8.540;2023-03-13T05:10:35;10.07;;;2.75;;
49366;SDS011;35245;52.026;8.540;2023-03-13T05:13:01;9.35;;;2.88;;
49366;SDS011;35245;52.026;8.540;2023-03-13T05:15:28;14.82;;;7.38;;
49366;SDS011;35245;52.026;8.540;2023-03-13T05:17:57;18.20;;;9.52;;
49366;SDS011;35245;52.026;8.540;2023-03-13T05:20:24;14.95;;;5.85;;
49366;SDS011;35245;52.026;8.540;2023-03-13T05:22:51;11.05;;;4.30;;
49366;SDS011;35245;52.026;8.540;2023-03-13T05:25:18;8.90;;;2.72;;
49366;SDS011;35245;52.026;8.540;2023-03-13T05:27:45;6.07;;;2.50;;
49366;SDS011;35245;52.026;8.540;2023-03-13T05:30:12;9.32;;;4.18;;
49366;SDS011;35245;52.026;8.540;2023-03-13T05:32:39;6.90;;;2.70;;
49366;SDS011;35245;52.026;8.540;2023-03-13T05:35:08;9.18;;;2.95;;
49366;SDS011;35245;52.026;8.540;2023-03-13T05:37:35;9.50;;;4.35;;
49366;SDS011;35245;52.026;8.540;2023-03-13T05:40:02;12.15;;;4.22;;
49366;SDS011;35245;52.026;8.540;2023-03-13T05:42:30;14.20;;;7.82;;
49366;SDS011;35245;52.026;8.540;2023-03-13T05:44:56;8.35;;;3.35;;
49366;SDS011;35245;52.026;8.540;2023-03-13T05:47:23;11.05;;;4.28;;
49366;SDS011;35245;52.026;8.540;2023-03-13T05:49:50;12.63;;;6.22;;
49366;SDS011;35245;52.026;8.540;2023-03-13T05:52:19;16.60;;;7.32;;
49366;SDS011;35245;52.026;8.540;2023-03-13T05:54:46;7.45;;;3.38;;
49366;SDS011;35245;52.026;8.540;2023-03-13T05:57:12;10.48;;;3.47;;
49366;SDS011;35245;52.026;8.540;2023-03-13T05:59:39;13.77;;;6.03;;
49366;SDS011;35245;52.026;8.540;2023-03-13T06:02:07;7.90;;;3.03;;
49366;SDS011;35245;52.026;8.540;2023-03-13T06:04:33;14.80;;;6.78;;
49366;SDS011;35245;52.026;8.540;2023-03-13T06:07:00;14.23;;;6.93;;
49366;SDS011;35245;52.026;8.540;2023-03-13T06:09:29;21.10;;;10.48;;
49366;SDS011;35245;52.026;8.540;2023-03-13T06:11:56;20.65;;;8.77;;
49366;SDS011;35245;52.026;8.540;2023-03-13T06:14:23;12.73;;;6.88;;
49366;SDS011;35245;52.026;8.540;2023-03-13T06:16:50;8.85;;;4.13;;
49366;SDS011;35245;52.026;8.540;2023-03-13T06:19:19;10.38;;;4.65;;
49366;SDS011;35245;52.026;8.540;2023-03-13T06:21:46;20.17;;;9.07;;
49366;SDS011;35245;52.026;8.540;2023-03-13T06:24:13;11.73;;;5.95;;
49366;SDS011;35245;52.026;8.540;2023-03-13T06:26:41;19.73;;;10.20;;
49366;SDS011;35245;52.026;8.540;2023-03-13T06:29:08;18.42;;;12.00;;
49366;SDS011;35245;52.026;8.540;2023-03-13T06:31:36;12.32;;;5.85;;
49366;SDS011;35245;52.026;8.540;2023-03-13T06:34:03;12.00;;;7.20;;
49366;SDS011;35245;52.026;8.540;2023-03-13T06:36:29;12.65;;;6.53;;
49366;SDS011;35245;52.026;8.540;2023-03-13T06:38:56;11.57;;;6.38;;
49366;SDS011;35245;52.026;8.540;2023-03-13T06:41:24;6.35;;;5.03;;
49366;SDS011;35245;52.026;8.540;2023-03-13T06:43:53;7.18;;;5.78;;
49366;SDS011;35245;52.026;8.540;2023-03-13T06:46:20;7.60;;;5.45;;
49366;SDS011;35245;52.026;8.540;2023-03-13T06:48:49;7.93;;;4.70;;
49366;SDS011;35245;52.026;8.540;2023-03-13T06:51:16;13.48;;;7.07;;
49366;SDS011;35245;52.026;8.540;2023-03-13T06:53:44;9.25;;;5.68;;
49366;SDS011;35245;52.026;8.540;2023-03-13T06:56:12;8.38;;;6.03;;
49366;SDS011;35245;52.026;8.540;2023-03-13T06:58:39;9.50;;;5.60;;
49366;SDS011;35245;52.026;8.540;2023-03-13T07:01:08;9.15;;;5.32;;
49366;SDS011;35245;52.026;8.540;2023-03-13T07:03:36;7.55;;;5.15;;
49366;SDS011;35245;52.026;8.540;2023-03-13T07:06:03;6.25;;;4.75;;
49366;SDS011;35245;52.026;8.540;2023-03-13T07:08:31;8.32;;;4.90;;
49366;SDS011;35245;52.026;8.540;2023-03-13T07:10:59;10.23;;;4.97;;
49366;SDS011;35245;52.026;8.540;2023-03-13T07:13:27;8.32;;;5.22;;
49366;SDS011;35245;52.026;8.540;2023-03-13T07:15:54;8.30;;;5.55;;
49366;SDS011;35245;52.026;8.540;2023-03-13T07:18:22;7.22;;;5.53;;
49366;SDS011;35245;52.026;8.540;2023-03-13T07:20:52;7.10;;;4.93;;
49366;SDS011;35245;52.026;8.540;2023-03-13T07:23:20;7.53;;;5.45;;
49366;SDS011;35245;52.026;8.540;2023-03-13T07:25:53;7.55;;;5.45;;
49366;SDS011;35245;52.026;8.540;2023-03-13T07:28:20;8.70;;;5.38;;
49366;SDS011;35245;52.026;8.540;2023-03-13T07:30:47;6.80;;;5.55;;
49366;SDS011;35245;52.026;8.540;2023-03-13T07:33:14;7.78;;;4.90;;
49366;SDS011;35245;52.026;8.540;2023-03-13T07:35:47;8.70;;;5.25;;
49366;SDS011;35245;52.026;8.540;2023-03-13T07:38:14;8.75;;;5.72;;
49366;SDS011;35245;52.026;8.540;2023-03-13T07:40:46;8.30;;;5.68;;
49366;SDS011;35245;52.026;8.540;2023-03-13T07:43:14;8.15;;;5.13;;
49366;SDS011;35245;52.026;8.540;2023-03-13T07:45:48;9.48;;;5.15;;
49366;SDS011;35245;52.026;8.540;2023-03-13T07:48:19;10.38;;;4.70;;
49366;SDS011;35245;52.026;8.540;2023-03-13T07:50:48;7.70;;;4.78;;
49366;SDS011;35245;52.026;8.540;2023-03-13T07:53:15;12.70;;;4.50;;
49366;SDS011;35245;52.026;8.540;2023-03-13T07:55:55;6.97;;;5.10;;
49366;SDS011;35245;52.026;8.540;2023-03-13T07:58:23;10.35;;;6.15;;
49366;SDS011;35245;52.026;8.540;2023-03-13T08:00:50;8.32;;;4.97;;
49366;SDS011;35245;52.026;8.540;2023-03-13T08:03:18;7.95;;;4.35;;
49366;SDS011;35245;52.026;8.540;2023-03-13T08:05:45;8.23;;;4.90;;
49366;SDS011;35245;52.026;8.540;2023-03-13T08:08:13;5.63;;;4.15;;
49366;SDS011;35245;52.026;8.540;2023-03-13T08:10:40;8.00;;;4.55;;
49366;SDS011;35245;52.026;8.540;2023-03-13T08:13:07;6.45;;;3.70;;
49366;SDS011;35245;52.026;8.540;2023-03-13T08:15:34;9.23;;;3.80;;
49366;SDS011;35245;52.026;8.540;2023-03-13T08:18:01;4.97;;;3.42;;
49366;SDS011;35245;52.026;8.540;2023-03-13T08:20:27;5.15;;;3.90;;
49366;SDS011;35245;52.026;8.540;2023-03-13T08:22:55;5.55;;;3.33;;
49366;SDS011;35245;52.026;8.540;2023-03-13T08:25:23;5.95;;;3.28;;
49366;SDS011;35245;52.026;8.540;2023-03-13T08:27:50;5.70;;;4.00;;
49366;SDS011;35245;52.026;8.540;2023-03-13T08:30:17;7.13;;;3.80;;
49366;SDS011;35245;52.026;8.540;2023-03-13T08:32:44;7.18;;;3.83;;
49366;SDS011;35245;52.026;8.540;2023-03-13T08:35:11;6.38;;;3.15;;
49366;SDS011;35245;52.026;8.540;2023-03-13T08:37:38;5.57;;;2.80;;
49366;SDS011;35245;52.026;8.540;2023-03-13T08:40:05;8.50;;;2.92;;
49366;SDS011;35245;52.026;8.540;2023-03-13T08:42:37;5.70;;;2.90;;
49366;SDS011;35245;52.026;8.540;2023-03-13T08:45:05;4.90;;;2.80;;
49366;SDS011;35245;52.026;8.540;2023-03-13T08:47:32;4.38;;;2.50;;
49366;SDS011;35245;52.026;8.540;2023-03-13T08:49:59;5.25;;;2.35;;
49366;SDS011;35245;52.026;8.540;2023-03-13T08:52:26;3.97;;;2.72;;
49366;SDS011;35245;52.026;8.540;2023-03-13T08:54:53;3.92;;;2.15;;
49366;SDS011;35245;52.026;8.540;2023-03-13T08:57:20;6.93;;;2.42;;
49366;SDS011;35245;52.026;8.540;2023-03-13T08:59:48;4.03;;;2.40;;
49366;SDS011;35245;52.026;8.540;2023-03-13T09:02:16;4.95;;;2.53;;
49366;SDS011;35245;52.026;8.540;2023-03-13T09:04:45;4.88;;;2.38;;
49366;SDS011;35245;52.026;8.540;2023-03-13T09:07:13;8.20;;;2.28;;
49366;SDS011;35245;52.026;8.540;2023-03-13T09:09:40;3.47;;;2.28;;
49366;SDS011;35245;52.026;8.540;2023-03-13T09:12:08;7.20;;;2.40;;
49366;SDS011;35245;52.026;8.540;2023-03-13T09:14:35;7.38;;;3.28;;
49366;SDS011;35245;52.026;8.540;2023-03-13T09:17:03;6.88;;;2.60;;
49366;SDS011;35245;52.026;8.540;2023-03-13T09:19:30;8.23;;;4.50;;
49366;SDS011;35245;52.026;8.540;2023-03-13T09:21:57;6.18;;;2.85;;
49366;SDS011;35245;52.026;8.540;2023-03-13T09:24:24;6.65;;;2.78;;
49366;SDS011;35245;52.026;8.540;2023-03-13T09:26:51;9.43;;;2.88;;
49366;SDS011;35245;52.026;8.540;2023-03-13T09:29:18;6.43;;;2.10;;
49366;SDS011;35245;52.026;8.540;2023-03-13T09:31:45;7.85;;;3.20;;
49366;SDS011;35245;52.026;8.540;2023-03-13T09:34:13;5.25;;;2.65;;
49366;SDS011;35245;52.026;8.540;2023-03-13T09:36:40;7.22;;;2.47;;
49366;SDS011;35245;52.026;8.540;2023-03-13T09:39:07;6.22;;;2.90;;
49366;SDS011;35245;52.026;8.540;2023-03-13T09:41:35;9.85;;;3.28;;
49366;SDS011;35245;52.026;8.540;2023-03-13T09:44:07;7.78;;;3.00;;
49366;SDS011;35245;52.026;8.540;2023-03-13T09:46:38;6.30;;;3.03;;
49366;SDS011;35245;52.026;8.540;2023-03-13T09:49:11;10.27;;;2.90;;
49366;SDS011;35245;52.026;8.540;2023-03-13T09:51:43;6.05;;;2.90;;
49366;SDS011;35245;52.026;8.540;2023-03-13T09:54:16;6.20;;;2.80;;
49366;SDS011;35245;52.026;8.540;2023-03-13T09:56:50;9.07;;;3.25;;
49366;SDS011;35245;52.026;8.540;2023-03-13T09:59:20;9.15;;;2.97;;
49366;SDS011;35245;52.026;8.540;2023-03-13T10:01:49;6.83;;;2.93;;
49366;SDS011;35245;52.026;8.540;2023-03-13T10:04:25;11.68;;;5.40;;
49366;SDS011;35245;52.026;8.540;2023-03-13T10:06:54;8.98;;;3.85;;
49366;SDS011;35245;52.026;8.540;2023-03-13T10:09:22;6.78;;;2.78;;
49366;SDS011;35245;52.026;8.540;2023-03-13T10:11:55;10.00;;;2.88;;
49366;SDS011;35245;52.026;8.540;2023-03-13T10:14:28;5.65;;;2.72;;
49366;SDS011;35245;52.026;8.540;2023-03-13T10:16:59;6.25;;;2.95;;
49366;SDS011;35245;52.026;8.540;2023-03-13T10:19:32;5.78;;;2.28;;
49366;SDS011;35245;52.026;8.540;2023-03-13T10:22:01;4.28;;;2.35;;
49366;SDS011;35245;52.026;8.540;2023-03-13T10:24:32;7.32;;;2.95;;
49366;SDS011;35245;52.026;8.540;2023-03-13T10:27:00;9.27;;;2.90;;
49366;SDS011;35245;52.026;8.540;2023-03-13T10:29:28;7.18;;;2.50;;
49366;SDS011;35245;52.026;8.540;2023-03-13T10:31:56;6.47;;;2.47;;
49366;SDS011;35245;52.026;8.540;2023-03-13T10:34:24;4.90;;;2.25;;
49366;SDS011;35245;52.026;8.540;2023-03-13T10:36:57;8.48;;;2.85;;
49366;SDS011;35245;52.026;8.540;2023-03-13T10:39:26;6.95;;;2.83;;
49366;SDS011;35245;52.026;8.540;2023-03-13T10:41:57;9.05;;;2.88;;
49366;SDS011;35245;52.026;8.540;2023-03-13T10:44:29;7.38;;;2.70;;
49366;SDS011;35245;52.026;8.540;2023-03-13T10:46:58;10.00;;;2.50;;
49366;SDS011;35245;52.026;8.540;2023-03-13T10:49:27;7.07;;;2.80;;
49366;SDS011;35245;52.026;8.540;2023-03-13T10:51:55;5.53;;;2.50;;
49366;SDS011;35245;52.026;8.540;2023-03-13T10:54:24;7.70;;;2.60;;
49366;SDS011;35245;52.026;8.540;2023-03-13T10:57:06;6.13;;;2.42;;
49366;SDS011;35245;52.026;8.540;2023-03-13T10:59:38;5.32;;;2.55;;
49366;SDS011;35245;52.026;8.540;2023-03-13T11:02:12;5.35;;;2.40;;
49366;SDS011;35245;52.026;8.540;2023-03-13T11:04:48;5.38;;;2.35;;
49366;SDS011;35245;52.026;8.540;2023-03-13T11:07:21;5.60;;;2.50;;
49366;SDS011;35245;52.026;8.540;2023-03-13T11:09:59;5.55;;;2.40;;
49366;SDS011;35245;52.026;8.540;2023-03-13T11:12:28;8.27;;;2.22;;
49366;SDS011;35245;52.026;8.540;2023-03-13T11:15:00;8.43;;;2.13;;
49366;SDS011;35245;52.026;8.540;2023-03-13T11:17:29;10.35;;;2.65;;
49366;SDS011;35245;52.026;8.540;2023-03-13T11:20:02;6.88;;;2.10;;
49366;SDS011;35245;52.026;8.540;2023-03-13T11:22:46;6.13;;;1.77;;
49366;SDS011;35245;52.026;8.540;2023-03-13T11:25:32;3.70;;;1.80;;
49366;SDS011;35245;52.026;8.540;2023-03-13T11:28:04;6.78;;;1.77;;
49366;SDS011;35245;52.026;8.540;2023-03-13T11:30:50;10.02;;;2.30;;
49366;SDS011;35245;52.026;8.540;2023-03-13T11:33:27;6.03;;;2.38;;
49366;SDS011;35245;52.026;8.540;2023-03-13T11:36:00;5.78;;;2.25;;
49366;SDS011;35245;52.026;8.540;2023-03-13T11:38:31;6.97;;;3.60;;
49366;SDS011;35245;52.026;8.540;2023-03-13T11:41:02;3.67;;;1.95;;
49366;SDS011;35245;52.026;8.540;2023-03-13T11:43:38;5.63;;;2.45;;
49366;SDS011;35245;52.026;8.540;2023-03-13T11:46:14;6.53;;;2.05;;
49366;SDS011;35245;52.026;8.540;2023-03-13T11:48:52;4.28;;;2.28;;
49366;SDS011;35245;52.026;8.540;2023-03-13T11:51:30;6.93;;;2.50;;
49366;SDS011;35245;52.026;8.540;2023-03-13T11:54:05;4.15;;;1.83;;
49366;SDS011;35245;52.026;8.540;2023-03-13T11:56:43;8.18;;;2.83;;
49366;SDS011;35245;52.026;8.540;2023-03-13T11:59:16;3.80;;;2.40;;
49366;SDS011;35245;52.026;8.540;2023-03-13T12:01:50;8.48;;;2.42;;
49366;SDS011;35245;52.026;8.540;2023-03-13T12:04:21;3.72;;;1.88;;
49366;SDS011;35245;52.026;8.540;2023-03-13T12:06:51;7.07;;;3.00;;
49366;SDS011;35245;52.026;8.540;2023-03-13T12:09:24;10.15;;;4.22;;
49366;SDS011;35245;52.026;8.540;2023-03-13T12:11:53;13.98;;;7.22;;
49366;SDS011;35245;52.026;8.540;2023-03-13T12:14:27;104.75;;;27.83;;
49366;SDS011;35245;52.026;8.540;2023-03-13T12:16:58;22.63;;;4.65;;
49366;SDS011;35245;52.026;8.540;2023-03-13T12:19:27;56.75;;;17.15;;
49366;SDS011;35245;52.026;8.540;2023-03-13T12:21:57;90.05;;;16.27;;
49366;SDS011;35245;52.026;8.540;2023-03-13T12:26:58;20.88;;;4.90;;
49366;SDS011;35245;52.026;8.540;2023-03-13T12:29:32;10.90;;;4.60;;
49366;SDS011;35245;52.026;8.540;2023-03-13T12:32:06;49.60;;;11.05;;
49366;SDS011;35245;52.026;8.540;2023-03-13T12:34:38;57.33;;;7.35;;
49366;SDS011;35245;52.026;8.540;2023-03-13T12:37:15;20.33;;;6.90;;
49366;SDS011;35245;52.026;8.540;2023-03-13T12:39:47;5.28;;;2.33;;
49366;SDS011;35245;52.026;8.540;2023-03-13T12:42:18;4.93;;;1.60;;
49366;SDS011;35245;52.026;8.540;2023-03-13T12:45:01;5.13;;;1.75;;
49366;SDS011;35245;52.026;8.540;2023-03-13T12:47:30;3.83;;;1.23;;
49366;SDS011;35245;52.026;8.540;2023-03-13T12:50:01;3.95;;;1.27;;
49366;SDS011;35245;52.026;8.540;2023-03-13T12:52:51;6.82;;;1.67;;
49366;SDS011;35245;52.026;8.540;2023-03-13T12:55:49;4.10;;;1.75;;
49366;SDS011;35245;52.026;8.540;2023-03-13T12:58:37;5.15;;;1.40;;
49366;SDS011;35245;52.026;8.540;2023-03-13T13:01:06;4.03;;;1.42;;
49366;SDS011;35245;52.026;8.540;2023-03-13T13:03:37;9.23;;;1.20;;
49366;SDS011;35245;52.026;8.540;2023-03-13T13:06:07;7.28;;;1.30;;
49366;SDS011;35245;52.026;8.540;2023-03-13T13:08:36;7.78;;;2.17;;
49366;SDS011;35245;52.026;8.540;2023-03-13T13:17:21;3.25;;;1.17;;
49366;SDS011;35245;52.026;8.540;2023-03-13T13:19:54;3.40;;;1.05;;
49366;SDS011;35245;52.026;8.540;2023-03-13T13:25:31;4.10;;;0.82;;
49366;SDS011;35245;52.026;8.540;2023-03-13T13:28:22;1.90;;;0.90;;
49366;SDS011;35245;52.026;8.540;2023-03-13T13:30:59;1.90;;;0.95;;
49366;SDS011;35245;52.026;8.540;2023-03-13T13:33:33;5.15;;;2.53;;
49366;SDS011;35245;52.026;8.540;2023-03-13T13:38:57;4.55;;;2.22;;
49366;SDS011;35245;52.026;8.540;2023-03-13T13:41:26;5.30;;;2.30;;
49366;SDS011;35245;52.026;8.540;2023-03-13T13:46:54;2.78;;;1.85;;
49366;SDS011;35245;52.026;8.540;2023-03-13T13:49:24;3.60;;;1.95;;
49366;SDS011;35245;52.026;8.540;2023-03-13T13:58:10;4.07;;;1.30;;
49366;SDS011;35245;52.026;8.540;2023-03-13T14:00:40;3.65;;;0.80;;
49366;SDS011;35245;52.026;8.540;2023-03-13T14:03:20;4.32;;;1.20;;
49366;SDS011;35245;52.026;8.540;2023-03-13T14:05:48;2.67;;;1.23;;
49366;SDS011;35245;52.026;8.540;2023-03-13T14:08:19;4.78;;;1.77;;
49366;SDS011;35245;52.026;8.540;2023-03-13T14:10:48;3.80;;;1.25;;
49366;SDS011;35245;52.026;8.540;2023-03-13T14:13:20;4.18;;;1.50;;
49366;SDS011;35245;52.026;8.540;2023-03-13T14:15:50;5.70;;;1.20;;
49366;SDS011;35245;52.026;8.540;2023-03-13T14:18:21;7.20;;;1.38;;
49366;SDS011;35245;52.026;8.540;2023-03-13T14:20:53;14.85;;;1.60;;
49366;SDS011;35245;52.026;8.540;2023-03-13T14:23:36;8.90;;;1.48;;
49366;SDS011;35245;52.026;8.540;2023-03-13T14:26:10;7.45;;;1.30;;
49366;SDS011;35245;52.026;8.540;2023-03-13T14:28:39;5.38;;;1.02;;
49366;SDS011;35245;52.026;8.540;2023-03-13T14:31:09;7.85;;;1.00;;
49366;SDS011;35245;52.026;8.540;2023-03-13T14:33:36;14.93;;;1.20;;
49366;SDS011;35245;52.026;8.540;2023-03-13T14:36:03;1.95;;;0.82;;
49366;SDS011;35245;52.026;8.540;2023-03-13T14:38:31;3.50;;;0.95;;
49366;SDS011;35245;52.026;8.540;2023-03-13T14:40:58;4.65;;;1.00;;
49366;SDS011;35245;52.026;8.540;2023-03-13T14:43:29;3.20;;;1.10;;
49366;SDS011;35245;52.026;8.540;2023-03-13T14:45:57;1.98;;;1.00;;
49366;SDS011;35245;52.026;8.540;2023-03-13T14:48:27;4.45;;;0.93;;
49366;SDS011;35245;52.026;8.540;2023-03-13T14:50:59;3.08;;;0.82;;
49366;SDS011;35245;52.026;8.540;2023-03-13T14:53:28;5.00;;;0.82;;
49366;SDS011;35245;52.026;8.540;2023-03-13T14:56:11;4.43;;;0.80;;
49366;SDS011;35245;52.026;8.540;2023-03-13T14:58:39;3.30;;;0.73;;
49366;SDS011;35245;52.026;8.540;2023-03-13T15:01:18;1.52;;;1.05;;
49366;SDS011;35245;52.026;8.540;2023-03-13T15:03:49;4.18;;;1.33;;
49366;SDS011;35245;52.026;8.540;2023-03-13T15:06:18;4.93;;;0.95;;
49366;SDS011;35245;52.026;8.540;2023-03-13T15:08:46;12.75;;;1.45;;
49366;SDS011;35245;52.026;8.540;2023-03-13T15:11:18;6.22;;;1.70;;
49366;SDS011;35245;52.026;8.540;2023-03-13T15:13:46;3.90;;;0.85;;
49366;SDS011;35245;52.026;8.540;2023-03-13T15:16:15;4.88;;;0.98;;
49366;SDS011;35245;52.026;8.540;2023-03-13T15:18:44;3.45;;;0.90;;
49366;SDS011;35245;52.026;8.540;2023-03-13T15:21:20;1.90;;;1.27;;